Satellite Actuals Today Synoptics Week ahead

Actual weather at the Black Mountains Gliding Club.

METARs

Birmingham

2019/12/16 09:20
EGBB 160920Z 20009KT CAVOK 05/03 Q0998

Brize Norton

2019/12/16 09:20
EGVN 160920Z 23001KT CAVOK 05/03 Q1000 NOSIG RMK BLU BLU

Cardiff

2019/12/16 09:20
EGFF 160920Z AUTO VRB03KT 9999 NCD 06/04 Q1000

Select station

2019/12/16 09:20
EGCC 160920Z AUTO VRB03KT 9999 NCD 03/01 Q0997 NOSIG

Decode?  - Copy the METAR (from the station code) and paste it into the METARs/TAFs box here.

Webcams
Current Long Mynd West

Airfield webcams


Bidford
Cambridge
Dunstable
Lasham
Long Mynd
Usk Airfield (South Wales GC)
Nympsfield airfield
Aston Down
Staverton- looking NE.
Shenington Airfield, near Banbury - from the clubhouse, looking north
Lasham airfield Hampshire

General webcams

Abergavenny looking west towards the Blorenge
Abersoch - Llyn peninsula - 2
Alvechurch, North Worcs.
Brecon Beacons National Park Visitor Centre webcam
Llangorse webcam
Newbury
Wye Valley webcam - different views can be selected